Campeche, Mexico

5:47 PM CDT on August 27, 2014 (GMT -0500)
XE3AHB Radio | Change Station
CLOSE
Current Station
Personal Weather Station
Location: Sn Fco de Campeche, Campeche
Elevation: 102 ft
Nearby Weather Stations

Elev 102 ft 19.83 °N, 90.54 °W | Updated 3 seconds ago

Scattered Clouds
Scattered Clouds
86.9 °F
Feels Like 100 °F
N
12.7
Wind Variable Wind from West
Gusts 12.7 mph

Today
High -- | Low -- °F
--% Chance of Precip.
Yesterday
High -- | Low -- °F
Precip. -- in
6:45 AM 7:21 PM
Waxing Crescent, 5% visible
Pressure 29.82 in
Visibility 7.0 miles
Clouds Few 2500 ft
Scattered Clouds 25000 ft
Heat Index 100 °F
Dew Point 78 °F
Humidity 75%
Rainfall 0.00 in
Snow Depth Not available.
UV 3 out of 12
Pollen Not available.
Air Quality Not available.
Flu Activity Not available.
METAR MMCP 272140Z 30010G20KT 7SM FEW025 SCT250 30/26 A2982 RMK 8/101

More Conditions Fewer Conditions

Pressure 29.82 in
Visibility 7.0 miles
Clouds Few 2500 ft
Scattered Clouds 25000 ft
Heat Index 100 °F
Dew Point 78 °F
Humidity 75%
Rainfall 0.00 in
Snow Depth Not available.
UV 3 out of 12
Pollen Not available.
Air Quality Not available.
Flu Activity Not available.
METAR MMCP 272140Z 30010G20KT 7SM FEW025 SCT250 30/26 A2982 RMK 8/101

More Conditions Fewer Conditions

10-Day Weather Forecast

Almanac

Astronomy

Aug. 27, 2014 Rise Set
Actual Time 6:45 AM CDT 7:21 PM CDT
Civil Twilight 6:22 AM CDT 7:43 PM CDT
Nautical Twilight 5:56 AM CDT 8:09 PM CDT
Astronomical Twilight 5:29 AM CDT 8:36 PM CDT
Moon 8:20 AM CDT 8:37 PM CDT
Length of Visible Light 13h 20m
Length of Day
12h 35m
Tomorrow will be 1m 4s shorter.
Waxing Crescent, 5% of the Moon is Illuminated
Today
Waxing Crescent
Sep 2
First Quarter
Sep 8
Full
Sep 15
Last Quarter
Sep 24
New

Today's Extremes

Country Highs Country Lows

Community

WunderPhotos

Upload Photos

1,747,805 photos uploaded!

Nearby

Snow Depth

Not available.

Earthquake Activity

City Distance Mag. Time & Date
No recent earthquake activity has been reported nearby.
Minimum magnitude displayed is 2.5.

Coastal Water Temperatures

Place Temperature
No Stations Reporting

Nearby Weather Stations